createdAt,value
2022-11-30T00:03:54.185Z,7.50
2022-11-30T00:10:38.827Z,7.50
2022-11-30T00:17:21.228Z,7.30
2022-11-30T00:24:06.042Z,7.40
2022-11-30T00:31:00.460Z,7.50
2022-11-30T00:37:42.964Z,7.50
2022-11-30T00:44:25.417Z,7.60
2022-11-30T00:51:09.075Z,7.70
2022-11-30T00:57:51.423Z,7.70
2022-11-30T01:04:34.004Z,7.50
2022-11-30T01:11:21.507Z,7.50
2022-11-30T01:18:04.449Z,7.50
2022-11-30T01:24:47.193Z,7.50
2022-11-30T01:31:29.737Z,7.60
2022-11-30T01:38:12.130Z,7.50
2022-11-30T01:44:56.777Z,7.60
2022-11-30T01:51:56.800Z,7.60
2022-11-30T01:58:39.544Z,7.70
2022-11-30T02:05:22.805Z,7.60
2022-11-30T02:12:08.005Z,7.60
2022-11-30T02:19:15.030Z,7.40
2022-11-30T02:26:39.169Z,7.40
2022-11-30T02:33:27.648Z,7.50
2022-11-30T02:40:13.476Z,7.50
2022-11-30T02:47:16.360Z,7.50
2022-11-30T02:53:58.974Z,7.50
2022-11-30T03:00:41.556Z,7.60
2022-11-30T03:07:24.163Z,7.70
2022-11-30T03:14:06.687Z,7.60
2022-11-30T03:20:49.050Z,7.60
2022-11-30T03:27:31.462Z,7.70
2022-11-30T03:34:13.894Z,7.70
2022-11-30T03:41:05.605Z,7.70
2022-11-30T03:47:48.027Z,7.80
2022-11-30T03:54:30.467Z,7.80
2022-11-30T04:01:16.055Z,7.80
2022-11-30T04:07:58.513Z,7.90
2022-11-30T04:14:40.889Z,7.70
2022-11-30T04:21:23.271Z,7.70
2022-11-30T04:28:05.656Z,7.60
2022-11-30T04:34:48.176Z,7.50
2022-11-30T04:41:30.856Z,7.60
2022-11-30T04:48:13.706Z,7.70
2022-11-30T04:54:56.905Z,7.70
2022-11-30T05:01:39.502Z,7.80
2022-11-30T05:08:22.133Z,7.70
2022-11-30T05:15:05.232Z,7.70
2022-11-30T05:21:47.678Z,7.80
2022-11-30T05:28:30.164Z,7.80
2022-11-30T05:35:12.564Z,7.80
2022-11-30T05:41:54.984Z,7.80
2022-11-30T05:48:37.915Z,7.90
2022-11-30T05:55:20.313Z,7.90
2022-11-30T06:02:02.854Z,7.90
2022-11-30T06:08:46.912Z,7.90
2022-11-30T06:15:30.052Z,7.70
2022-11-30T06:22:12.462Z,7.60
2022-11-30T06:28:55.007Z,7.40
2022-11-30T06:35:37.362Z,7.50
2022-11-30T06:42:19.909Z,7.50
2022-11-30T06:49:02.573Z,7.70
2022-11-30T06:55:45.008Z,7.70
2022-11-30T07:02:27.587Z,7.60
2022-11-30T07:09:11.008Z,7.60
2022-11-30T07:15:53.643Z,7.60
2022-11-30T07:22:36.013Z,7.60
2022-11-30T07:29:18.445Z,7.60
2022-11-30T07:36:00.939Z,7.50
2022-11-30T07:42:43.373Z,7.40
2022-11-30T07:49:25.807Z,7.40
2022-11-30T07:56:15.432Z,7.50
2022-11-30T08:02:57.979Z,7.70
2022-11-30T08:09:40.359Z,7.90
2022-11-30T08:16:25.860Z,8.30
2022-11-30T08:23:17.915Z,8.50
2022-11-30T08:30:01.499Z,8.80
2022-11-30T08:36:47.123Z,8.90
2022-11-30T08:43:33.414Z,8.90
2022-11-30T08:50:15.909Z,8.90
2022-11-30T08:56:59.108Z,9.10
2022-11-30T09:03:42.924Z,9.30
2022-11-30T09:10:25.298Z,9.40
2022-11-30T09:17:07.715Z,9.40
2022-11-30T09:23:51.130Z,9.10
2022-11-30T09:30:33.654Z,8.90
2022-11-30T09:37:16.055Z,9.10
2022-11-30T09:44:23.322Z,9.00
2022-11-30T09:51:12.205Z,9.00
2022-11-30T09:58:00.523Z,8.60
2022-11-30T10:04:43.187Z,8.70
2022-11-30T10:11:50.376Z,8.60
2022-11-30T10:18:39.998Z,8.60
2022-11-30T10:25:24.843Z,8.60
2022-11-30T10:32:35.486Z,8.90
2022-11-30T10:39:31.762Z,8.80
2022-11-30T10:46:38.977Z,8.30
2022-11-30T10:53:22.955Z,8.40
2022-11-30T11:00:06.978Z,8.80
2022-11-30T11:06:53.442Z,8.70
2022-11-30T11:13:39.053Z,8.90
2022-11-30T11:20:35.021Z,8.90
2022-11-30T11:27:39.939Z,9.10
2022-11-30T11:34:32.216Z,9.20
2022-11-30T11:41:34.775Z,9.00
2022-11-30T11:48:36.015Z,9.30
2022-11-30T11:55:21.126Z,9.40
2022-11-30T12:02:11.850Z,9.20
2022-11-30T12:09:07.628Z,9.50
2022-11-30T12:16:22.156Z,9.50
2022-11-30T12:23:33.255Z,9.20
2022-11-30T12:30:18.560Z,9.20
2022-11-30T12:37:14.595Z,9.60
2022-11-30T12:44:08.887Z,9.30
2022-11-30T12:51:00.746Z,9.00
2022-11-30T12:58:27.720Z,9.00
2022-11-30T13:05:15.669Z,8.90
2022-11-30T13:12:07.584Z,8.80
2022-11-30T13:18:52.664Z,8.80
2022-11-30T13:26:07.452Z,8.70
2022-11-30T13:33:00.312Z,8.80
2022-11-30T13:39:49.299Z,8.90
2022-11-30T13:46:31.733Z,9.00
2022-11-30T13:53:25.877Z,9.10
2022-11-30T14:01:02.274Z,9.10
2022-11-30T14:07:46.236Z,9.10
2022-11-30T14:14:45.701Z,8.70
2022-11-30T14:21:33.486Z,8.50
2022-11-30T14:28:19.981Z,8.80
2022-11-30T14:35:24.493Z,8.70
2022-11-30T14:42:18.658Z,8.50
2022-11-30T14:49:24.043Z,8.50
2022-11-30T14:56:16.630Z,8.60
2022-11-30T15:02:59.046Z,8.50
2022-11-30T15:09:44.869Z,8.30
2022-11-30T15:16:29.228Z,8.20
2022-11-30T15:23:15.879Z,8.30
2022-11-30T15:30:00.732Z,8.30
2022-11-30T15:36:43.797Z,8.50
2022-11-30T15:43:26.752Z,8.70
2022-11-30T15:50:39.566Z,8.50
2022-11-30T15:57:24.660Z,8.60
2022-11-30T16:04:07.906Z,8.20
2022-11-30T16:10:50.782Z,8.30
2022-11-30T16:17:33.834Z,8.20
2022-11-30T16:24:17.101Z,8.20
2022-11-30T16:31:01.034Z,8.20
2022-11-30T16:37:43.476Z,8.20
2022-11-30T16:44:25.851Z,8.20
2022-11-30T16:51:18.352Z,8.00
2022-11-30T16:58:01.931Z,8.10
2022-11-30T17:04:45.328Z,8.00
2022-11-30T17:11:31.997Z,8.00
2022-11-30T17:18:14.845Z,8.00
2022-11-30T17:24:57.327Z,7.90
2022-11-30T17:31:40.097Z,7.80
2022-11-30T17:38:25.225Z,7.90
2022-11-30T17:45:08.878Z,7.90
2022-11-30T17:51:54.735Z,7.50
2022-11-30T17:58:43.870Z,7.50
2022-11-30T18:05:27.450Z,7.40
2022-11-30T18:12:10.564Z,7.40
2022-11-30T18:18:53.998Z,7.30
2022-11-30T18:25:36.570Z,7.50
2022-11-30T18:32:21.546Z,7.60
2022-11-30T18:39:04.047Z,7.50
2022-11-30T18:45:46.751Z,7.40
2022-11-30T18:52:29.198Z,7.30
2022-11-30T18:59:15.314Z,7.10
2022-11-30T19:05:57.812Z,7.00
2022-11-30T19:12:40.249Z,6.80
2022-11-30T19:19:22.730Z,6.60
2022-11-30T19:26:06.594Z,6.60
2022-11-30T19:32:49.280Z,6.60
2022-11-30T19:39:32.989Z,6.60
2022-11-30T19:46:17.077Z,6.50
2022-11-30T19:53:00.145Z,6.50
2022-11-30T19:59:42.583Z,6.40
2022-11-30T20:06:29.751Z,6.30
2022-11-30T20:13:12.262Z,7.30
2022-11-30T20:19:54.625Z,6.10
2022-11-30T20:26:41.433Z,6.00
2022-11-30T20:33:23.799Z,5.90
2022-11-30T20:40:06.971Z,5.80
2022-11-30T20:46:49.306Z,5.80
2022-11-30T20:53:31.667Z,5.70
2022-11-30T21:00:15.015Z,5.80
2022-11-30T21:06:57.480Z,5.70
2022-11-30T21:13:41.865Z,5.60
2022-11-30T21:20:24.285Z,5.50
2022-11-30T21:27:07.048Z,5.50
2022-11-30T21:33:53.262Z,5.50
2022-11-30T21:40:36.137Z,5.40
2022-11-30T21:47:18.826Z,5.40
2022-11-30T21:54:03.938Z,5.30
2022-11-30T22:00:53.411Z,5.30
2022-11-30T22:07:35.798Z,5.30
2022-11-30T22:14:18.210Z,5.20
2022-11-30T22:21:08.930Z,5.30
2022-11-30T22:27:51.368Z,5.50
2022-11-30T22:34:33.837Z,5.60
2022-11-30T22:41:17.171Z,5.40
2022-11-30T22:47:59.624Z,5.60
2022-11-30T22:54:42.089Z,5.40
2022-11-30T23:01:27.243Z,5.20
2022-11-30T23:08:09.712Z,5.20
2022-11-30T23:14:52.106Z,5.40
2022-11-30T23:21:41.363Z,5.20
2022-11-30T23:28:23.905Z,5.20
2022-11-30T23:35:06.736Z,5.30
2022-11-30T23:41:49.385Z,5.20
2022-11-30T23:48:32.331Z,5.00
2022-11-30T23:55:14.970Z,4.80
